createdAt,value
2018-12-17T00:01:20.192Z,13.23
2018-12-17T00:03:47.897Z,13.00
2018-12-17T00:06:15.615Z,13.90
2018-12-17T00:08:43.498Z,13.60
2018-12-17T00:11:11.513Z,14.67
2018-12-17T00:13:39.248Z,14.50
2018-12-17T00:16:06.986Z,14.90
2018-12-17T00:18:34.849Z,14.20
2018-12-17T00:21:02.696Z,14.27
2018-12-17T00:23:30.408Z,13.50
2018-12-17T00:25:58.107Z,15.53
2018-12-17T00:28:25.840Z,15.50
2018-12-17T00:30:53.592Z,16.80
2018-12-17T00:33:21.366Z,14.67
2018-12-17T00:35:49.076Z,15.27
2018-12-17T00:38:16.765Z,15.27
2018-12-17T00:40:44.480Z,13.10
2018-12-17T00:43:12.224Z,15.43
2018-12-17T00:45:40.008Z,15.07
2018-12-17T00:48:07.747Z,15.87
2018-12-17T00:50:35.448Z,14.83
2018-12-17T00:53:03.302Z,17.30
2018-12-17T00:55:31.081Z,15.90
2018-12-17T00:57:58.888Z,15.23
2018-12-17T01:00:26.658Z,15.27
2018-12-17T01:02:54.374Z,15.10
2018-12-17T01:05:22.151Z,13.27
2018-12-17T01:07:49.859Z,13.37
2018-12-17T01:10:17.608Z,12.17
2018-12-17T01:12:45.316Z,14.20
2018-12-17T01:15:13.057Z,15.30
2018-12-17T01:17:40.820Z,15.87
2018-12-17T01:20:08.737Z,14.93
2018-12-17T01:22:36.478Z,15.67
2018-12-17T01:25:04.422Z,14.83
2018-12-17T01:27:32.114Z,14.27
2018-12-17T01:29:59.864Z,15.30
2018-12-17T01:32:27.652Z,16.60
2018-12-17T01:34:56.033Z,14.50
2018-12-17T01:37:23.748Z,14.90
2018-12-17T01:39:51.576Z,15.00
2018-12-17T01:42:19.271Z,13.37
2018-12-17T01:44:47.040Z,14.50
2018-12-17T01:47:14.736Z,15.70
2018-12-17T01:49:42.488Z,14.07
2018-12-17T01:52:10.186Z,13.03
2018-12-17T01:54:37.929Z,13.80
2018-12-17T01:57:05.733Z,13.37
2018-12-17T01:59:33.517Z,12.97
2018-12-17T02:02:01.282Z,13.63
2018-12-17T02:04:29.037Z,13.97
2018-12-17T02:06:56.821Z,14.80
2018-12-17T02:09:24.632Z,16.63
2018-12-17T02:11:52.406Z,17.60
2018-12-17T02:14:20.274Z,16.40
2018-12-17T02:16:48.092Z,16.30
2018-12-17T02:19:15.855Z,15.07
2018-12-17T02:21:43.600Z,15.07
2018-12-17T02:24:11.337Z,12.57
2018-12-17T02:26:39.126Z,13.47
2018-12-17T02:29:06.909Z,14.33
2018-12-17T02:31:34.693Z,13.17
2018-12-17T02:34:02.493Z,15.17
2018-12-17T02:36:30.237Z,14.03
2018-12-17T02:38:58.023Z,14.10
2018-12-17T02:41:31.691Z,17.17
2018-12-17T02:43:59.682Z,16.30
2018-12-17T02:46:27.429Z,13.83
2018-12-17T02:48:55.148Z,14.43
2018-12-17T02:51:22.937Z,13.07
2018-12-17T02:53:50.636Z,19.67
2018-12-17T02:56:18.450Z,13.10
2018-12-17T02:58:47.024Z,16.20
2018-12-17T03:01:14.796Z,13.40
2018-12-17T03:03:42.557Z,13.33
2018-12-17T03:06:10.352Z,13.20
2018-12-17T03:08:38.164Z,14.47
2018-12-17T03:11:05.936Z,13.50
2018-12-17T03:13:39.315Z,13.83
2018-12-17T03:16:07.081Z,17.53
2018-12-17T03:18:34.866Z,13.13
2018-12-17T03:21:02.766Z,12.07
2018-12-17T03:23:30.511Z,12.70
2018-12-17T03:25:58.334Z,10.90
2018-12-17T03:28:26.055Z,12.07
2018-12-17T03:30:53.775Z,13.00
2018-12-17T03:33:21.620Z,12.47
2018-12-17T03:35:49.391Z,8.87
2018-12-17T03:38:17.082Z,10.20
2018-12-17T03:40:44.905Z,9.90
2018-12-17T03:43:12.745Z,10.40
2018-12-17T03:45:40.490Z,9.83
2018-12-17T03:48:08.256Z,8.93
2018-12-17T03:50:36.100Z,9.47
2018-12-17T03:53:03.925Z,9.60
2018-12-17T03:55:31.612Z,9.57
2018-12-17T03:57:59.357Z,10.63
2018-12-17T04:00:27.152Z,11.93
2018-12-17T04:02:54.886Z,11.27
2018-12-17T04:05:22.648Z,10.67
2018-12-17T04:07:50.485Z,13.43
2018-12-17T04:10:18.205Z,12.00
2018-12-17T04:12:46.872Z,12.27
2018-12-17T04:15:14.684Z,12.03
2018-12-17T04:17:42.395Z,11.83
2018-12-17T04:20:10.119Z,10.33
2018-12-17T04:22:37.876Z,12.07
2018-12-17T04:25:07.832Z,11.23
2018-12-17T04:27:35.589Z,10.80
2018-12-17T04:30:03.961Z,12.10
2018-12-17T04:32:31.665Z,13.37
2018-12-17T04:34:59.389Z,13.90
2018-12-17T04:37:27.136Z,13.87
2018-12-17T04:39:54.964Z,12.63
2018-12-17T04:42:22.617Z,14.30
2018-12-17T04:44:50.319Z,14.00
2018-12-17T04:47:18.018Z,14.20
2018-12-17T04:49:45.743Z,14.97
2018-12-17T04:52:14.087Z,13.77
2018-12-17T04:54:42.004Z,15.97
2018-12-17T04:57:09.715Z,15.43
2018-12-17T04:59:37.517Z,13.03
2018-12-17T05:02:05.571Z,13.07
2018-12-17T05:04:33.437Z,15.00
2018-12-17T05:07:01.138Z,15.50
2018-12-17T05:09:28.878Z,13.03
2018-12-17T05:11:56.632Z,14.40
2018-12-17T05:14:24.319Z,13.30
2018-12-17T05:16:52.066Z,13.33
2018-12-17T05:19:19.858Z,12.13
2018-12-17T05:21:47.618Z,12.20
2018-12-17T05:24:15.412Z,12.73
2018-12-17T05:26:43.196Z,13.50
2018-12-17T05:29:10.920Z,14.30
2018-12-17T05:31:38.973Z,13.17
2018-12-17T05:34:06.741Z,15.43
2018-12-17T05:36:34.471Z,15.20
2018-12-17T05:39:02.531Z,14.40
2018-12-17T05:41:30.273Z,14.23
2018-12-17T05:43:58.067Z,14.80
2018-12-17T05:46:25.845Z,14.83
2018-12-17T05:48:53.569Z,14.80
2018-12-17T05:51:21.322Z,16.87
2018-12-17T05:53:50.035Z,16.40
2018-12-17T05:56:18.556Z,14.43
2018-12-17T05:58:46.352Z,15.43
2018-12-17T06:01:14.107Z,17.27
2018-12-17T06:03:41.864Z,17.43
2018-12-17T06:06:09.665Z,16.87
2018-12-17T06:08:37.909Z,17.77
2018-12-17T06:11:05.639Z,15.67
2018-12-17T06:13:33.429Z,16.83
2018-12-17T06:16:01.157Z,17.20
2018-12-17T06:18:28.905Z,15.77
2018-12-17T06:20:56.931Z,16.73
2018-12-17T06:23:24.691Z,19.83
2018-12-17T06:25:52.445Z,17.23
2018-12-17T06:28:20.180Z,17.47
2018-12-17T06:30:48.133Z,18.53
2018-12-17T06:33:15.896Z,18.70
2018-12-17T06:35:43.712Z,18.90
2018-12-17T06:38:11.414Z,17.47
2018-12-17T06:40:39.162Z,19.33
2018-12-17T06:43:07.505Z,17.17
2018-12-17T06:45:35.209Z,19.73
2018-12-17T06:48:03.208Z,17.43
2018-12-17T06:50:30.935Z,20.50
2018-12-17T06:52:59.119Z,19.73
2018-12-17T06:55:26.869Z,20.63
2018-12-17T06:57:54.890Z,21.47
2018-12-17T07:00:22.637Z,21.67
2018-12-17T07:02:50.378Z,18.80
2018-12-17T07:05:18.148Z,25.33
2018-12-17T07:07:45.905Z,21.57
2018-12-17T07:10:13.604Z,19.00
2018-12-17T07:12:41.314Z,20.10
2018-12-17T07:15:09.689Z,21.77
2018-12-17T07:17:37.404Z,21.47
2018-12-17T07:20:06.443Z,19.60
2018-12-17T07:22:34.156Z,22.27
2018-12-17T07:25:01.934Z,21.60
2018-12-17T07:27:33.698Z,22.17
2018-12-17T07:30:01.742Z,23.63
2018-12-17T07:32:30.554Z,21.70
2018-12-17T07:34:58.430Z,22.00
2018-12-17T07:37:26.298Z,19.10
2018-12-17T07:39:54.105Z,21.13
2018-12-17T07:42:22.219Z,22.70
2018-12-17T07:44:50.070Z,23.00
2018-12-17T07:47:18.019Z,23.57
2018-12-17T07:49:46.550Z,24.17
2018-12-17T07:52:14.306Z,22.70
2018-12-17T07:54:42.074Z,23.80
2018-12-17T07:57:10.530Z,22.83
2018-12-17T07:59:38.253Z,23.30
2018-12-17T08:02:06.114Z,24.27
2018-12-17T08:04:33.838Z,25.47
2018-12-17T08:07:01.548Z,22.40
2018-12-17T08:09:29.329Z,21.97
2018-12-17T08:11:57.145Z,22.90
2018-12-17T08:14:24.888Z,26.20
2018-12-17T08:16:53.180Z,25.27
2018-12-17T08:19:20.913Z,24.07
2018-12-17T08:21:48.698Z,25.33
2018-12-17T08:24:16.412Z,24.30
2018-12-17T08:26:44.107Z,23.87
2018-12-17T08:29:12.121Z,22.37
2018-12-17T08:31:39.858Z,25.13
2018-12-17T08:34:07.861Z,26.67
2018-12-17T08:36:35.616Z,27.83
2018-12-17T08:39:04.955Z,25.60
2018-12-17T08:41:32.683Z,26.57
2018-12-17T08:44:00.433Z,27.93
2018-12-17T08:46:30.407Z,26.87
2018-12-17T08:48:58.179Z,26.93
2018-12-17T08:51:25.989Z,27.33
2018-12-17T08:53:53.724Z,27.63
2018-12-17T08:56:21.502Z,25.77
2018-12-17T08:58:49.278Z,26.63
2018-12-17T09:01:17.006Z,26.73
2018-12-17T09:03:44.765Z,25.03
2018-12-17T09:06:12.717Z,25.60
2018-12-17T09:08:40.618Z,24.93
2018-12-17T09:11:08.349Z,25.67
2018-12-17T09:13:36.109Z,25.87
2018-12-17T09:16:03.945Z,24.63
2018-12-17T09:18:31.680Z,25.60
2018-12-17T09:20:59.379Z,24.40
2018-12-17T09:23:27.283Z,24.03
2018-12-17T09:25:54.978Z,24.93
2018-12-17T09:28:22.726Z,23.90
2018-12-17T09:30:50.551Z,24.00
2018-12-17T09:33:18.416Z,23.60
2018-12-17T09:35:46.138Z,24.13
2018-12-17T09:38:13.882Z,22.90
2018-12-17T09:40:41.639Z,23.33
2018-12-17T09:43:09.477Z,25.37
2018-12-17T09:45:37.224Z,25.40
2018-12-17T09:48:04.953Z,26.43
2018-12-17T09:50:32.701Z,23.87
2018-12-17T09:53:00.474Z,25.93
2018-12-17T09:55:28.239Z,25.23
2018-12-17T09:57:55.969Z,26.07
2018-12-17T10:00:25.587Z,26.60
2018-12-17T10:02:53.465Z,27.27
2018-12-17T10:05:21.169Z,26.60
2018-12-17T10:07:48.908Z,24.27
2018-12-17T10:10:16.636Z,28.27
2018-12-17T10:12:44.374Z,27.50
2018-12-17T10:15:12.121Z,28.07
2018-12-17T10:17:40.156Z,26.67
2018-12-17T10:20:07.897Z,25.93
2018-12-17T10:22:35.628Z,27.93
2018-12-17T10:25:03.660Z,26.77
2018-12-17T10:27:31.401Z,25.40
2018-12-17T10:29:59.184Z,25.70
2018-12-17T10:32:26.953Z,27.50
2018-12-17T10:34:54.700Z,26.67
2018-12-17T10:37:23.075Z,25.80
2018-12-17T10:39:50.821Z,27.53
2018-12-17T10:42:18.565Z,26.30
2018-12-17T10:44:46.459Z,27.33
2018-12-17T10:47:14.176Z,25.20
2018-12-17T10:49:41.917Z,26.33
2018-12-17T10:52:09.811Z,24.60
2018-12-17T10:54:37.544Z,24.77
2018-12-17T10:57:05.259Z,25.50
2018-12-17T10:59:33.125Z,25.83
2018-12-17T11:02:07.601Z,25.97
2018-12-17T11:04:41.316Z,26.77
2018-12-17T11:07:09.800Z,23.63
2018-12-17T11:09:37.529Z,25.30
2018-12-17T11:12:05.310Z,26.07
2018-12-17T11:14:34.199Z,25.13
2018-12-17T11:17:01.985Z,24.83
2018-12-17T11:19:29.718Z,23.70
2018-12-17T11:21:57.444Z,22.53
2018-12-17T11:24:25.176Z,24.20
2018-12-17T11:26:52.887Z,23.33
2018-12-17T11:29:20.627Z,24.90
2018-12-17T11:31:48.386Z,24.23
2018-12-17T11:34:16.176Z,24.60
2018-12-17T11:36:43.918Z,24.73
2018-12-17T11:39:11.617Z,25.87
2018-12-17T11:41:39.335Z,24.20
2018-12-17T11:44:07.064Z,22.37
2018-12-17T11:46:34.798Z,22.00
2018-12-17T11:49:02.710Z,22.47
2018-12-17T11:51:30.665Z,22.80
2018-12-17T11:53:58.444Z,23.97
2018-12-17T11:56:38.198Z,21.27
2018-12-17T11:59:05.970Z,20.40
2018-12-17T12:01:33.773Z,20.27
2018-12-17T12:04:01.501Z,22.13
2018-12-17T12:06:29.274Z,20.73
2018-12-17T12:08:57.060Z,20.43
2018-12-17T12:11:24.809Z,22.37
2018-12-17T12:13:52.536Z,19.80
2018-12-17T12:16:20.671Z,17.53
2018-12-17T12:18:48.544Z,19.20
2018-12-17T12:21:16.306Z,19.87
2018-12-17T12:23:44.061Z,19.60
2018-12-17T12:26:12.062Z,18.40
2018-12-17T12:28:39.901Z,19.20
2018-12-17T12:31:07.668Z,18.87
2018-12-17T12:33:35.532Z,19.33
2018-12-17T12:36:03.510Z,18.63
2018-12-17T12:38:31.233Z,17.83
2018-12-17T12:40:58.999Z,17.53
2018-12-17T12:43:26.693Z,19.20
2018-12-17T12:45:54.413Z,17.03
2018-12-17T12:48:22.165Z,18.90
2018-12-17T12:50:49.894Z,16.90
2018-12-17T12:53:17.685Z,15.43
2018-12-17T12:55:45.432Z,15.93
2018-12-17T12:58:13.144Z,16.03
2018-12-17T13:00:40.878Z,14.97
2018-12-17T13:03:08.956Z,15.60
2018-12-17T13:05:36.667Z,15.07
2018-12-17T13:08:04.393Z,16.57
2018-12-17T13:10:32.192Z,16.30
2018-12-17T13:12:59.988Z,15.83
2018-12-17T13:15:27.694Z,17.63
2018-12-17T13:17:55.512Z,17.73
2018-12-17T13:20:23.273Z,18.43
2018-12-17T13:22:51.022Z,16.87
2018-12-17T13:25:27.292Z,17.17
2018-12-17T13:27:55.099Z,17.27
2018-12-17T13:30:22.806Z,15.60
2018-12-17T13:32:50.559Z,15.53
2018-12-17T13:35:18.359Z,14.53
2018-12-17T13:37:46.096Z,14.63
2018-12-17T13:40:13.835Z,16.10
2018-12-17T13:42:41.732Z,15.17
2018-12-17T13:45:10.557Z,15.30
2018-12-17T13:47:38.343Z,16.07
2018-12-17T13:50:11.913Z,15.53
2018-12-17T13:52:47.297Z,15.07
2018-12-17T13:55:15.558Z,13.23
2018-12-17T13:57:43.369Z,13.60
2018-12-17T14:00:12.094Z,12.67
2018-12-17T14:02:39.828Z,13.53
2018-12-17T14:05:07.563Z,14.03
2018-12-17T14:07:35.306Z,13.87
2018-12-17T14:10:09.219Z,14.27
2018-12-17T14:12:37.055Z,14.10
2018-12-17T14:15:05.187Z,14.43
2018-12-17T14:17:36.317Z,14.17
2018-12-17T14:20:11.711Z,14.40
2018-12-17T14:22:39.562Z,14.10
2018-12-17T14:25:07.500Z,22.80
2018-12-17T14:27:35.242Z,71.47
2018-12-17T14:30:03.998Z,36.17
2018-12-17T14:32:31.764Z,21.70
2018-12-17T14:34:59.484Z,33.10
2018-12-17T14:37:27.218Z,25.57
2018-12-17T14:39:54.981Z,27.00
2018-12-17T14:42:22.826Z,16.73
2018-12-17T14:44:51.113Z,13.67
2018-12-17T14:47:18.920Z,13.83
2018-12-17T14:49:46.630Z,14.03
2018-12-17T14:52:14.326Z,12.67
2018-12-17T14:54:42.253Z,14.47
2018-12-17T14:57:10.012Z,13.10
2018-12-17T14:59:37.734Z,13.47
2018-12-17T15:02:05.581Z,11.40
2018-12-17T15:04:33.311Z,11.63
2018-12-17T15:07:01.075Z,12.57
2018-12-17T15:09:28.814Z,13.40
2018-12-17T15:11:56.576Z,12.70
2018-12-17T15:14:24.293Z,12.17
2018-12-17T15:16:51.995Z,12.87
2018-12-17T15:19:19.726Z,12.23
2018-12-17T15:21:47.496Z,12.77
2018-12-17T15:24:15.267Z,10.80
2018-12-17T15:26:43.012Z,12.90
2018-12-17T15:29:10.865Z,10.67
2018-12-17T15:31:42.962Z,11.37
2018-12-17T15:34:08.463Z,12.17
2018-12-17T15:36:36.141Z,12.13
2018-12-17T15:39:04.992Z,13.30
2018-12-17T15:41:32.764Z,12.73
2018-12-17T15:44:00.493Z,12.60
2018-12-17T15:46:28.178Z,10.90
2018-12-17T15:48:55.926Z,12.43
2018-12-17T15:51:23.631Z,13.07
2018-12-17T15:53:51.308Z,12.47
2018-12-17T15:56:19.008Z,12.83
2018-12-17T15:58:46.851Z,12.17
2018-12-17T16:01:14.575Z,12.37
2018-12-17T16:03:42.314Z,12.37
2018-12-17T16:06:10.059Z,12.53
2018-12-17T16:08:37.814Z,12.63
2018-12-17T16:11:05.563Z,13.50
2018-12-17T16:13:33.249Z,11.20
2018-12-17T16:16:00.949Z,12.33
2018-12-17T16:18:28.668Z,11.40
2018-12-17T16:20:56.369Z,12.20
2018-12-17T16:23:24.136Z,11.57
2018-12-17T16:25:51.833Z,11.53
2018-12-17T16:28:19.545Z,10.60
2018-12-17T16:30:47.295Z,10.23
2018-12-17T16:33:15.001Z,9.17
2018-12-17T16:35:42.685Z,8.20
2018-12-17T16:38:11.860Z,9.10
2018-12-17T16:40:39.861Z,8.13
2018-12-17T16:43:07.563Z,7.57
2018-12-17T16:45:35.299Z,8.43
2018-12-17T16:48:03.084Z,8.13
2018-12-17T16:50:30.830Z,7.30
2018-12-17T16:52:58.575Z,7.70
2018-12-17T16:55:26.319Z,6.27
2018-12-17T16:57:54.044Z,6.40
2018-12-17T17:00:21.813Z,6.60
2018-12-17T17:02:49.511Z,7.00
2018-12-17T17:05:17.225Z,6.07
2018-12-17T17:07:44.944Z,5.40
2018-12-17T17:10:13.314Z,6.17
2018-12-17T17:12:41.258Z,6.03
2018-12-17T17:15:11.107Z,6.00
2018-12-17T17:17:39.356Z,7.20
2018-12-17T17:20:09.568Z,6.93
2018-12-17T17:22:38.097Z,6.17
2018-12-17T17:25:07.118Z,5.67
2018-12-17T17:27:35.175Z,5.83
2018-12-17T17:30:03.999Z,5.70
2018-12-17T17:32:31.772Z,5.20
2018-12-17T17:34:59.745Z,5.20
2018-12-17T17:37:27.604Z,4.77
2018-12-17T17:39:55.309Z,5.67
2018-12-17T17:42:23.133Z,5.40
2018-12-17T17:44:51.887Z,5.17
2018-12-17T17:47:19.565Z,5.27
2018-12-17T17:49:47.305Z,5.10
2018-12-17T17:52:15.016Z,5.40
2018-12-17T17:54:42.773Z,5.67
2018-12-17T17:57:10.507Z,5.03
2018-12-17T17:59:38.589Z,4.90
2018-12-17T18:02:06.781Z,5.30
2018-12-17T18:04:34.565Z,5.50
2018-12-17T18:07:02.315Z,6.13
2018-12-17T18:09:30.087Z,5.57
2018-12-17T18:11:57.836Z,4.50
2018-12-17T18:14:26.099Z,4.73
2018-12-17T18:16:53.833Z,4.30
2018-12-17T18:19:21.535Z,4.20
2018-12-17T18:21:49.285Z,5.33
2018-12-17T18:24:17.127Z,5.20
2018-12-17T18:26:44.928Z,4.43
2018-12-17T18:29:12.652Z,5.27
2018-12-17T18:31:40.433Z,4.00
2018-12-17T18:34:08.177Z,4.63
2018-12-17T18:36:36.006Z,4.13
2018-12-17T18:39:06.658Z,4.43
2018-12-17T18:41:34.398Z,4.10
2018-12-17T18:44:02.156Z,4.10
2018-12-17T18:46:29.896Z,4.57
2018-12-17T18:48:57.685Z,3.83
2018-12-17T18:51:25.449Z,4.87
2018-12-17T18:53:53.541Z,4.27
2018-12-17T18:56:21.264Z,3.83
2018-12-17T18:58:48.941Z,4.33
2018-12-17T19:01:16.760Z,3.60
2018-12-17T19:03:44.469Z,3.40
2018-12-17T19:06:12.172Z,3.60
2018-12-17T19:08:39.946Z,3.70
2018-12-17T19:11:07.718Z,3.53
2018-12-17T19:13:35.509Z,3.43
2018-12-17T19:16:03.444Z,3.40
2018-12-17T19:18:31.186Z,3.80
2018-12-17T19:20:59.143Z,4.27
2018-12-17T19:23:27.037Z,3.60
2018-12-17T19:25:54.803Z,3.73
2018-12-17T19:28:22.534Z,3.27
2018-12-17T19:30:50.384Z,3.50
2018-12-17T19:33:18.169Z,3.40
2018-12-17T19:35:46.049Z,3.40
2018-12-17T19:38:13.849Z,3.70
2018-12-17T19:40:41.602Z,3.07
2018-12-17T19:43:09.416Z,3.57
2018-12-17T19:45:37.131Z,4.90
2018-12-17T19:48:06.603Z,4.20
2018-12-17T19:50:34.612Z,3.77
2018-12-17T19:53:02.512Z,3.87
2018-12-17T19:55:30.350Z,3.50
2018-12-17T19:57:58.178Z,4.27
2018-12-17T20:00:25.864Z,4.10
2018-12-17T20:02:53.828Z,3.60
2018-12-17T20:05:21.606Z,3.73
2018-12-17T20:07:50.062Z,3.00
2018-12-17T20:10:23.268Z,4.10
2018-12-17T20:12:51.365Z,3.30
2018-12-17T20:15:19.119Z,5.07
2018-12-17T20:17:46.849Z,3.90
2018-12-17T20:20:14.634Z,4.00
2018-12-17T20:22:42.497Z,4.30
2018-12-17T20:25:10.626Z,4.23
2018-12-17T20:27:38.360Z,4.50
2018-12-17T20:30:08.219Z,4.20
2018-12-17T20:32:36.164Z,4.77
2018-12-17T20:35:04.623Z,3.87
2018-12-17T20:37:33.549Z,5.03
2018-12-17T20:40:01.284Z,4.40
2018-12-17T20:42:29.295Z,5.00
2018-12-17T20:44:58.121Z,3.90
2018-12-17T20:47:25.844Z,3.90
2018-12-17T20:49:53.556Z,4.13
2018-12-17T20:52:21.342Z,4.30
2018-12-17T20:54:49.086Z,4.60
2018-12-17T20:57:16.890Z,4.77
2018-12-17T20:59:44.606Z,4.90
2018-12-17T21:02:12.367Z,5.30
2018-12-17T21:04:40.093Z,5.37
2018-12-17T21:07:09.892Z,5.27
2018-12-17T21:09:38.182Z,5.97
2018-12-17T21:12:06.024Z,5.67
2018-12-17T21:14:35.381Z,6.30
2018-12-17T21:17:03.152Z,6.40
2018-12-17T21:19:30.965Z,6.47
2018-12-17T21:21:58.679Z,7.73
2018-12-17T21:24:28.566Z,7.03
2018-12-17T21:26:56.304Z,7.77
2018-12-17T21:29:24.052Z,7.10
2018-12-17T21:31:51.761Z,7.63
2018-12-17T21:34:19.532Z,7.50
2018-12-17T21:36:47.297Z,7.60
2018-12-17T21:39:15.020Z,7.40
2018-12-17T21:41:42.726Z,7.43
2018-12-17T21:44:10.453Z,7.03
2018-12-17T21:46:38.198Z,7.53
2018-12-17T21:49:05.987Z,8.33
2018-12-17T21:51:33.804Z,7.90
2018-12-17T21:54:01.794Z,8.10
2018-12-17T21:56:29.518Z,7.97
2018-12-17T21:58:57.192Z,8.40
2018-12-17T22:01:24.913Z,7.40
2018-12-17T22:03:52.693Z,7.43
2018-12-17T22:06:20.422Z,8.00
2018-12-17T22:08:48.225Z,8.27
2018-12-17T22:11:16.863Z,7.43
2018-12-17T22:13:44.618Z,7.47
2018-12-17T22:16:12.330Z,8.07
2018-12-17T22:18:40.070Z,8.30
2018-12-17T22:21:07.786Z,8.07
2018-12-17T22:23:36.202Z,7.60
2018-12-17T22:26:04.250Z,8.37
2018-12-17T22:28:32.021Z,8.10
2018-12-17T22:30:59.766Z,8.37
2018-12-17T22:33:28.268Z,9.03
2018-12-17T22:35:55.965Z,8.53
2018-12-17T22:38:23.749Z,7.73
2018-12-17T22:40:51.560Z,7.97
2018-12-17T22:43:19.376Z,9.70
2018-12-17T22:45:47.112Z,8.23
2018-12-17T22:48:14.861Z,8.63
2018-12-17T22:50:42.582Z,9.70
2018-12-17T22:53:10.446Z,9.03
2018-12-17T22:55:38.236Z,9.80
2018-12-17T22:58:05.953Z,9.77
2018-12-17T23:00:34.108Z,10.40
2018-12-17T23:03:02.453Z,11.00
2018-12-17T23:05:30.197Z,11.87
2018-12-17T23:07:57.929Z,10.57
2018-12-17T23:10:44.616Z,11.30
2018-12-17T23:13:23.353Z,11.00
2018-12-17T23:16:02.053Z,10.47
2018-12-17T23:18:28.613Z,10.80
2018-12-17T23:20:56.485Z,9.97
2018-12-17T23:23:24.359Z,10.97
2018-12-17T23:25:52.096Z,11.03
2018-12-17T23:28:19.809Z,10.23
2018-12-17T23:30:48.384Z,10.60
2018-12-17T23:33:16.110Z,10.93
2018-12-17T23:35:43.852Z,11.60
2018-12-17T23:38:11.631Z,10.97
2018-12-17T23:40:39.375Z,11.50
2018-12-17T23:43:07.264Z,12.20
2018-12-17T23:45:35.010Z,10.40
2018-12-17T23:48:02.796Z,10.83
2018-12-17T23:50:30.527Z,10.57
2018-12-17T23:52:58.261Z,10.40
2018-12-17T23:55:26.025Z,10.13
2018-12-17T23:57:53.730Z,10.10
